Columbus, Ohio
Traffic Map
Current Weather Conditions
Columbus, Ohio
Few Clouds
Few Clouds
64°
Feels Like: 64°
Wind Chill: 64° Ceiling: Unl
Heat Index: 64° Visibility: 10mi
Dew Point: 48° Wind: 5mph
Humidity: 56% Direction: 290° (WNW)
Pressure: 30.11in Gusts: 0mph
Raw Report DataKCMH 260251Z 29004KT 10SM FEW085 18/09 A3011 RMK AO2 SLP192 T01780089 51011 $
Traffic Incident Summary
Active as of:
Severity:
Category:
InformationThere was an issue retrieving the traffic information for this location. Please try a different location or try again shortly.
Advertisements
Track Severe Weather on mobile